sensor_id;sensor_type;location;lat;lon;timestamp;P1;durP1;ratioP1;P2;durP2;ratioP2
62880;SDS011;48969;49.934;8.596;2023-02-03T00:02:14;14.32;;;5.90;;
62880;SDS011;48969;49.934;8.596;2023-02-03T00:04:39;12.32;;;5.90;;
62880;SDS011;48969;49.934;8.596;2023-02-03T00:07:04;10.75;;;5.82;;
62880;SDS011;48969;49.934;8.596;2023-02-03T00:09:29;11.95;;;5.90;;
62880;SDS011;48969;49.934;8.596;2023-02-03T00:11:55;4.85;;;2.33;;
62880;SDS011;48969;49.934;8.596;2023-02-03T00:14:20;8.50;;;5.60;;
62880;SDS011;48969;49.934;8.596;2023-02-03T00:16:45;10.75;;;5.95;;
62880;SDS011;48969;49.934;8.596;2023-02-03T00:19:10;10.15;;;6.07;;
62880;SDS011;48969;49.934;8.596;2023-02-03T00:21:35;10.30;;;5.97;;
62880;SDS011;48969;49.934;8.596;2023-02-03T00:24:00;9.82;;;6.20;;
62880;SDS011;48969;49.934;8.596;2023-02-03T00:26:26;9.15;;;5.88;;
62880;SDS011;48969;49.934;8.596;2023-02-03T00:28:52;9.60;;;6.35;;
62880;SDS011;48969;49.934;8.596;2023-02-03T00:31:18;8.65;;;6.18;;
62880;SDS011;48969;49.934;8.596;2023-02-03T00:33:43;11.50;;;6.22;;
62880;SDS011;48969;49.934;8.596;2023-02-03T00:36:09;10.13;;;5.97;;
62880;SDS011;48969;49.934;8.596;2023-02-03T00:38:34;9.68;;;5.97;;
62880;SDS011;48969;49.934;8.596;2023-02-03T00:40:59;7.88;;;5.60;;
62880;SDS011;48969;49.934;8.596;2023-02-03T00:43:24;11.05;;;5.93;;
62880;SDS011;48969;49.934;8.596;2023-02-03T00:45:50;7.55;;;5.05;;
62880;SDS011;48969;49.934;8.596;2023-02-03T00:48:15;11.40;;;5.20;;
62880;SDS011;48969;49.934;8.596;2023-02-03T00:50:40;8.02;;;4.78;;
62880;SDS011;48969;49.934;8.596;2023-02-03T00:53:05;7.25;;;4.82;;
62880;SDS011;48969;49.934;8.596;2023-02-03T00:55:30;8.80;;;4.60;;
62880;SDS011;48969;49.934;8.596;2023-02-03T00:57:55;7.63;;;4.40;;
62880;SDS011;48969;49.934;8.596;2023-02-03T01:00:34;7.10;;;4.30;;
62880;SDS011;48969;49.934;8.596;2023-02-03T01:02:59;6.28;;;4.03;;
62880;SDS011;48969;49.934;8.596;2023-02-03T01:05:24;1.55;;;0.90;;
62880;SDS011;48969;49.934;8.596;2023-02-03T01:07:49;6.43;;;4.10;;
62880;SDS011;48969;49.934;8.596;2023-02-03T01:10:15;6.47;;;3.80;;
62880;SDS011;48969;49.934;8.596;2023-02-03T01:15:09;5.97;;;3.38;;
62880;SDS011;48969;49.934;8.596;2023-02-03T01:17:35;6.72;;;3.78;;
62880;SDS011;48969;49.934;8.596;2023-02-03T01:20:00;7.82;;;4.13;;
62880;SDS011;48969;49.934;8.596;2023-02-03T01:22:25;7.70;;;4.28;;
62880;SDS011;48969;49.934;8.596;2023-02-03T01:24:52;6.40;;;4.75;;
62880;SDS011;48969;49.934;8.596;2023-02-03T01:27:17;5.10;;;4.20;;
62880;SDS011;48969;49.934;8.596;2023-02-03T01:29:42;4.53;;;3.47;;
62880;SDS011;48969;49.934;8.596;2023-02-03T01:32:08;6.35;;;4.18;;
62880;SDS011;48969;49.934;8.596;2023-02-03T01:34:33;6.18;;;3.90;;
62880;SDS011;48969;49.934;8.596;2023-02-03T01:37:01;4.95;;;3.40;;
62880;SDS011;48969;49.934;8.596;2023-02-03T01:39:26;5.50;;;3.38;;
62880;SDS011;48969;49.934;8.596;2023-02-03T01:41:53;5.75;;;3.40;;
62880;SDS011;48969;49.934;8.596;2023-02-03T01:47:17;5.45;;;3.25;;
62880;SDS011;48969;49.934;8.596;2023-02-03T01:49:56;5.45;;;3.30;;
62880;SDS011;48969;49.934;8.596;2023-02-03T01:52:23;6.90;;;3.28;;
62880;SDS011;48969;49.934;8.596;2023-02-03T01:54:49;1.80;;;1.00;;
62880;SDS011;48969;49.934;8.596;2023-02-03T01:57:17;4.93;;;3.38;;
62880;SDS011;48969;49.934;8.596;2023-02-03T01:59:43;4.75;;;2.70;;
62880;SDS011;48969;49.934;8.596;2023-02-03T02:02:08;5.68;;;2.83;;
62880;SDS011;48969;49.934;8.596;2023-02-03T02:05:21;6.18;;;2.75;;
62880;SDS011;48969;49.934;8.596;2023-02-03T02:07:20;4.70;;;2.78;;
62880;SDS011;48969;49.934;8.596;2023-02-03T02:09:45;3.92;;;2.50;;
62880;SDS011;48969;49.934;8.596;2023-02-03T02:12:11;3.42;;;2.50;;
62880;SDS011;48969;49.934;8.596;2023-02-03T02:14:36;6.20;;;2.75;;
62880;SDS011;48969;49.934;8.596;2023-02-03T02:17:05;5.82;;;2.80;;
62880;SDS011;48969;49.934;8.596;2023-02-03T02:24:52;4.30;;;2.78;;
62880;SDS011;48969;49.934;8.596;2023-02-03T02:37:30;3.38;;;2.33;;
62880;SDS011;48969;49.934;8.596;2023-02-03T02:40:20;4.30;;;2.30;;
62880;SDS011;48969;49.934;8.596;2023-02-03T02:45:21;3.60;;;2.30;;
62880;SDS011;48969;49.934;8.596;2023-02-03T02:47:50;3.53;;;2.60;;
62880;SDS011;48969;49.934;8.596;2023-02-03T02:50:22;2.92;;;2.47;;
62880;SDS011;48969;49.934;8.596;2023-02-03T02:52:48;3.22;;;2.20;;
62880;SDS011;48969;49.934;8.596;2023-02-03T02:55:16;4.57;;;2.50;;
62880;SDS011;48969;49.934;8.596;2023-02-03T02:57:42;2.88;;;1.98;;
62880;SDS011;48969;49.934;8.596;2023-02-03T03:00:09;3.42;;;2.28;;
62880;SDS011;48969;49.934;8.596;2023-02-03T03:02:36;2.47;;;2.20;;
62880;SDS011;48969;49.934;8.596;2023-02-03T03:05:04;2.90;;;1.90;;
62880;SDS011;48969;49.934;8.596;2023-02-03T03:07:32;2.97;;;2.15;;
62880;SDS011;48969;49.934;8.596;2023-02-03T03:10:00;2.15;;;1.90;;
62880;SDS011;48969;49.934;8.596;2023-02-03T03:14:53;1.85;;;1.60;;
62880;SDS011;48969;49.934;8.596;2023-02-03T03:17:23;3.10;;;1.92;;
62880;SDS011;48969;49.934;8.596;2023-02-03T03:19:51;4.05;;;2.15;;
62880;SDS011;48969;49.934;8.596;2023-02-03T03:22:17;2.78;;;1.83;;
62880;SDS011;48969;49.934;8.596;2023-02-03T03:24:47;2.33;;;2.13;;
62880;SDS011;48969;49.934;8.596;2023-02-03T03:27:25;2.40;;;2.10;;
62880;SDS011;48969;49.934;8.596;2023-02-03T03:29:55;2.63;;;2.00;;
62880;SDS011;48969;49.934;8.596;2023-02-03T03:32:22;3.78;;;2.00;;
62880;SDS011;48969;49.934;8.596;2023-02-03T03:34:47;3.55;;;2.10;;
62880;SDS011;48969;49.934;8.596;2023-02-03T03:37:18;2.45;;;2.10;;
62880;SDS011;48969;49.934;8.596;2023-02-03T03:39:47;3.35;;;2.10;;
62880;SDS011;48969;49.934;8.596;2023-02-03T03:47:23;2.17;;;1.77;;
62880;SDS011;48969;49.934;8.596;2023-02-03T03:49:53;3.40;;;1.90;;
62880;SDS011;48969;49.934;8.596;2023-02-03T03:52:21;2.42;;;2.13;;
62880;SDS011;48969;49.934;8.596;2023-02-03T03:54:46;3.05;;;1.70;;
62880;SDS011;48969;49.934;8.596;2023-02-03T03:57:17;2.63;;;2.10;;
62880;SDS011;48969;49.934;8.596;2023-02-03T03:59:46;2.00;;;1.80;;
62880;SDS011;48969;49.934;8.596;2023-02-03T04:02:12;1.67;;;1.58;;
62880;SDS011;48969;49.934;8.596;2023-02-03T04:04:37;2.20;;;1.83;;
62880;SDS011;48969;49.934;8.596;2023-02-03T04:07:03;2.35;;;1.70;;
62880;SDS011;48969;49.934;8.596;2023-02-03T04:09:28;2.20;;;1.50;;
62880;SDS011;48969;49.934;8.596;2023-02-03T04:11:53;2.25;;;1.67;;
62880;SDS011;48969;49.934;8.596;2023-02-03T04:14:25;1.55;;;1.45;;
62880;SDS011;48969;49.934;8.596;2023-02-03T04:16:50;2.13;;;1.40;;
62880;SDS011;48969;49.934;8.596;2023-02-03T04:19:15;1.90;;;1.40;;
62880;SDS011;48969;49.934;8.596;2023-02-03T04:21:40;2.10;;;1.90;;
62880;SDS011;48969;49.934;8.596;2023-02-03T04:24:05;2.00;;;1.77;;
62880;SDS011;48969;49.934;8.596;2023-02-03T04:26:30;1.98;;;1.48;;
62880;SDS011;48969;49.934;8.596;2023-02-03T04:28:56;1.73;;;1.63;;
62880;SDS011;48969;49.934;8.596;2023-02-03T04:31:21;2.45;;;1.50;;
62880;SDS011;48969;49.934;8.596;2023-02-03T04:33:46;1.63;;;1.52;;
62880;SDS011;48969;49.934;8.596;2023-02-03T04:36:11;1.60;;;1.50;;
62880;SDS011;48969;49.934;8.596;2023-02-03T04:38:36;1.77;;;1.40;;
62880;SDS011;48969;49.934;8.596;2023-02-03T04:41:02;1.67;;;1.58;;
62880;SDS011;48969;49.934;8.596;2023-02-03T04:43:27;2.47;;;1.65;;
62880;SDS011;48969;49.934;8.596;2023-02-03T04:45:52;3.17;;;1.60;;
62880;SDS011;48969;49.934;8.596;2023-02-03T04:48:17;2.33;;;1.92;;
62880;SDS011;48969;49.934;8.596;2023-02-03T04:50:42;2.50;;;1.60;;
62880;SDS011;48969;49.934;8.596;2023-02-03T04:53:07;2.20;;;1.80;;
62880;SDS011;48969;49.934;8.596;2023-02-03T04:55:33;3.35;;;1.85;;
62880;SDS011;48969;49.934;8.596;2023-02-03T04:57:58;2.03;;;1.70;;
62880;SDS011;48969;49.934;8.596;2023-02-03T05:00:24;2.92;;;2.03;;
62880;SDS011;48969;49.934;8.596;2023-02-03T05:02:49;3.42;;;1.90;;
62880;SDS011;48969;49.934;8.596;2023-02-03T05:05:15;2.13;;;1.90;;
62880;SDS011;48969;49.934;8.596;2023-02-03T05:07:40;2.88;;;1.98;;
62880;SDS011;48969;49.934;8.596;2023-02-03T05:10:06;2.20;;;1.88;;
62880;SDS011;48969;49.934;8.596;2023-02-03T05:12:31;4.75;;;3.10;;
62880;SDS011;48969;49.934;8.596;2023-02-03T05:14:56;4.10;;;2.20;;
62880;SDS011;48969;49.934;8.596;2023-02-03T05:17:21;2.42;;;1.90;;
62880;SDS011;48969;49.934;8.596;2023-02-03T05:19:46;3.80;;;2.15;;
62880;SDS011;48969;49.934;8.596;2023-02-03T05:22:12;2.85;;;1.98;;
62880;SDS011;48969;49.934;8.596;2023-02-03T05:24:37;2.17;;;1.98;;
62880;SDS011;48969;49.934;8.596;2023-02-03T05:27:02;3.33;;;2.25;;
62880;SDS011;48969;49.934;8.596;2023-02-03T05:29:27;4.80;;;2.47;;
62880;SDS011;48969;49.934;8.596;2023-02-03T05:31:52;3.85;;;2.40;;
62880;SDS011;48969;49.934;8.596;2023-02-03T05:34:17;3.97;;;2.60;;
62880;SDS011;48969;49.934;8.596;2023-02-03T05:36:43;3.63;;;2.50;;
62880;SDS011;48969;49.934;8.596;2023-02-03T05:39:08;4.95;;;2.80;;
62880;SDS011;48969;49.934;8.596;2023-02-03T05:41:33;6.95;;;2.70;;
62880;SDS011;48969;49.934;8.596;2023-02-03T05:44:21;4.40;;;2.72;;
62880;SDS011;48969;49.934;8.596;2023-02-03T05:46:46;5.82;;;2.70;;
62880;SDS011;48969;49.934;8.596;2023-02-03T05:49:12;5.03;;;2.72;;
62880;SDS011;48969;49.934;8.596;2023-02-03T05:51:37;4.82;;;2.90;;
62880;SDS011;48969;49.934;8.596;2023-02-03T05:54:03;5.22;;;2.60;;
62880;SDS011;48969;49.934;8.596;2023-02-03T05:56:28;5.53;;;2.70;;
62880;SDS011;48969;49.934;8.596;2023-02-03T05:58:54;6.20;;;2.70;;
62880;SDS011;48969;49.934;8.596;2023-02-03T06:01:19;6.13;;;2.90;;
62880;SDS011;48969;49.934;8.596;2023-02-03T06:03:45;7.35;;;3.28;;
62880;SDS011;48969;49.934;8.596;2023-02-03T06:06:11;6.78;;;3.20;;
62880;SDS011;48969;49.934;8.596;2023-02-03T06:08:36;5.30;;;3.10;;
62880;SDS011;48969;49.934;8.596;2023-02-03T06:11:01;4.07;;;3.05;;
62880;SDS011;48969;49.934;8.596;2023-02-03T06:13:26;4.57;;;2.55;;
62880;SDS011;48969;49.934;8.596;2023-02-03T06:15:52;3.05;;;2.50;;
62880;SDS011;48969;49.934;8.596;2023-02-03T06:18:17;3.90;;;3.00;;
62880;SDS011;48969;49.934;8.596;2023-02-03T06:20:43;3.95;;;2.75;;
62880;SDS011;48969;49.934;8.596;2023-02-03T06:23:08;4.80;;;2.83;;
62880;SDS011;48969;49.934;8.596;2023-02-03T06:25:38;4.35;;;2.35;;
62880;SDS011;48969;49.934;8.596;2023-02-03T06:28:03;5.22;;;2.80;;
62880;SDS011;48969;49.934;8.596;2023-02-03T06:30:28;4.05;;;2.95;;
62880;SDS011;48969;49.934;8.596;2023-02-03T06:32:53;5.57;;;2.78;;
62880;SDS011;48969;49.934;8.596;2023-02-03T06:35:18;4.20;;;3.00;;
62880;SDS011;48969;49.934;8.596;2023-02-03T06:37:44;3.38;;;2.80;;
62880;SDS011;48969;49.934;8.596;2023-02-03T06:40:09;3.97;;;2.90;;
62880;SDS011;48969;49.934;8.596;2023-02-03T06:42:35;3.45;;;2.92;;
62880;SDS011;48969;49.934;8.596;2023-02-03T06:45:00;5.32;;;3.33;;
62880;SDS011;48969;49.934;8.596;2023-02-03T06:47:25;5.30;;;3.28;;
62880;SDS011;48969;49.934;8.596;2023-02-03T06:49:50;4.63;;;3.30;;
62880;SDS011;48969;49.934;8.596;2023-02-03T06:52:16;6.15;;;3.10;;
62880;SDS011;48969;49.934;8.596;2023-02-03T06:54:41;5.00;;;3.10;;
62880;SDS011;48969;49.934;8.596;2023-02-03T06:57:07;4.82;;;3.05;;
62880;SDS011;48969;49.934;8.596;2023-02-03T06:59:32;5.00;;;3.28;;
62880;SDS011;48969;49.934;8.596;2023-02-03T07:01:57;4.70;;;3.50;;
62880;SDS011;48969;49.934;8.596;2023-02-03T07:04:22;5.13;;;3.33;;
62880;SDS011;48969;49.934;8.596;2023-02-03T07:06:48;4.15;;;3.70;;
62880;SDS011;48969;49.934;8.596;2023-02-03T07:09:13;4.25;;;3.03;;
62880;SDS011;48969;49.934;8.596;2023-02-03T07:11:38;4.68;;;3.20;;
62880;SDS011;48969;49.934;8.596;2023-02-03T07:14:03;7.05;;;3.47;;
62880;SDS011;48969;49.934;8.596;2023-02-03T07:16:29;3.95;;;3.05;;
62880;SDS011;48969;49.934;8.596;2023-02-03T07:18:55;4.38;;;3.15;;
62880;SDS011;48969;49.934;8.596;2023-02-03T07:21:20;4.82;;;3.10;;
62880;SDS011;48969;49.934;8.596;2023-02-03T07:23:45;4.43;;;2.95;;
62880;SDS011;48969;49.934;8.596;2023-02-03T07:26:11;6.18;;;3.15;;
62880;SDS011;48969;49.934;8.596;2023-02-03T07:28:36;4.95;;;2.95;;
62880;SDS011;48969;49.934;8.596;2023-02-03T07:31:02;5.05;;;3.03;;
62880;SDS011;48969;49.934;8.596;2023-02-03T07:33:28;5.07;;;3.15;;
62880;SDS011;48969;49.934;8.596;2023-02-03T07:35:54;4.32;;;2.70;;
62880;SDS011;48969;49.934;8.596;2023-02-03T07:38:20;5.32;;;2.75;;
62880;SDS011;48969;49.934;8.596;2023-02-03T07:40:45;4.70;;;2.67;;
62880;SDS011;48969;49.934;8.596;2023-02-03T07:43:10;4.88;;;2.72;;
62880;SDS011;48969;49.934;8.596;2023-02-03T07:45:35;5.15;;;2.53;;
62880;SDS011;48969;49.934;8.596;2023-02-03T07:48:01;5.20;;;2.75;;
62880;SDS011;48969;49.934;8.596;2023-02-03T07:50:26;3.40;;;2.50;;
62880;SDS011;48969;49.934;8.596;2023-02-03T07:52:51;5.82;;;3.00;;
62880;SDS011;48969;49.934;8.596;2023-02-03T07:55:17;5.50;;;3.03;;
62880;SDS011;48969;49.934;8.596;2023-02-03T07:57:42;3.10;;;2.63;;
62880;SDS011;48969;49.934;8.596;2023-02-03T08:00:09;5.13;;;3.50;;
62880;SDS011;48969;49.934;8.596;2023-02-03T08:02:35;3.90;;;2.90;;
62880;SDS011;48969;49.934;8.596;2023-02-03T08:05:00;4.15;;;3.05;;
62880;SDS011;48969;49.934;8.596;2023-02-03T08:07:25;6.63;;;2.80;;
62880;SDS011;48969;49.934;8.596;2023-02-03T08:09:50;4.68;;;2.78;;
62880;SDS011;48969;49.934;8.596;2023-02-03T08:12:16;4.97;;;2.60;;
62880;SDS011;48969;49.934;8.596;2023-02-03T08:14:42;5.65;;;2.80;;
62880;SDS011;48969;49.934;8.596;2023-02-03T08:17:07;3.47;;;2.60;;
62880;SDS011;48969;49.934;8.596;2023-02-03T08:19:33;5.63;;;3.28;;
62880;SDS011;48969;49.934;8.596;2023-02-03T08:21:58;3.95;;;2.58;;
62880;SDS011;48969;49.934;8.596;2023-02-03T08:24:23;5.78;;;2.80;;
62880;SDS011;48969;49.934;8.596;2023-02-03T08:26:48;3.42;;;2.60;;
62880;SDS011;48969;49.934;8.596;2023-02-03T08:29:13;2.75;;;2.35;;
62880;SDS011;48969;49.934;8.596;2023-02-03T08:31:40;4.97;;;2.78;;
62880;SDS011;48969;49.934;8.596;2023-02-03T08:34:05;2.97;;;2.30;;
62880;SDS011;48969;49.934;8.596;2023-02-03T08:36:30;4.70;;;2.90;;
62880;SDS011;48969;49.934;8.596;2023-02-03T08:38:56;4.78;;;2.88;;
62880;SDS011;48969;49.934;8.596;2023-02-03T08:41:21;6.03;;;2.90;;
62880;SDS011;48969;49.934;8.596;2023-02-03T08:43:46;3.65;;;2.28;;
62880;SDS011;48969;49.934;8.596;2023-02-03T08:46:11;4.57;;;2.55;;
62880;SDS011;48969;49.934;8.596;2023-02-03T08:48:37;3.97;;;2.70;;
62880;SDS011;48969;49.934;8.596;2023-02-03T08:51:08;5.05;;;2.60;;
62880;SDS011;48969;49.934;8.596;2023-02-03T08:53:33;3.10;;;2.40;;
62880;SDS011;48969;49.934;8.596;2023-02-03T08:55:59;4.60;;;2.38;;
62880;SDS011;48969;49.934;8.596;2023-02-03T08:58:24;3.97;;;2.40;;
62880;SDS011;48969;49.934;8.596;2023-02-03T09:00:49;4.72;;;2.53;;
62880;SDS011;48969;49.934;8.596;2023-02-03T09:03:17;4.70;;;2.50;;
62880;SDS011;48969;49.934;8.596;2023-02-03T09:05:42;4.90;;;2.22;;
62880;SDS011;48969;49.934;8.596;2023-02-03T09:08:07;2.80;;;2.08;;
62880;SDS011;48969;49.934;8.596;2023-02-03T09:10:32;2.92;;;2.00;;
62880;SDS011;48969;49.934;8.596;2023-02-03T09:12:57;2.80;;;1.60;;
62880;SDS011;48969;49.934;8.596;2023-02-03T09:15:22;3.53;;;1.95;;
62880;SDS011;48969;49.934;8.596;2023-02-03T09:17:48;3.80;;;1.90;;
62880;SDS011;48969;49.934;8.596;2023-02-03T09:20:13;1.95;;;1.75;;
62880;SDS011;48969;49.934;8.596;2023-02-03T09:22:39;5.15;;;2.85;;
62880;SDS011;48969;49.934;8.596;2023-02-03T09:25:05;2.92;;;2.03;;
62880;SDS011;48969;49.934;8.596;2023-02-03T09:27:30;5.40;;;2.08;;
62880;SDS011;48969;49.934;8.596;2023-02-03T09:29:55;4.53;;;2.20;;
62880;SDS011;48969;49.934;8.596;2023-02-03T09:32:22;4.35;;;2.15;;
62880;SDS011;48969;49.934;8.596;2023-02-03T09:34:47;2.83;;;1.77;;
62880;SDS011;48969;49.934;8.596;2023-02-03T09:37:12;6.90;;;2.22;;
62880;SDS011;48969;49.934;8.596;2023-02-03T09:39:38;4.88;;;2.22;;
62880;SDS011;48969;49.934;8.596;2023-02-03T09:47:55;2.35;;;1.52;;
62880;SDS011;48969;49.934;8.596;2023-02-03T09:50:02;3.38;;;1.50;;
62880;SDS011;48969;49.934;8.596;2023-02-03T09:52:28;5.93;;;1.73;;
62880;SDS011;48969;49.934;8.596;2023-02-03T09:57:21;3.28;;;1.58;;
62880;SDS011;48969;49.934;8.596;2023-02-03T09:59:47;2.67;;;1.60;;
62880;SDS011;48969;49.934;8.596;2023-02-03T10:04:52;2.28;;;1.45;;
62880;SDS011;48969;49.934;8.596;2023-02-03T10:07:25;4.78;;;1.65;;
62880;SDS011;48969;49.934;8.596;2023-02-03T10:12:41;4.25;;;1.30;;
62880;SDS011;48969;49.934;8.596;2023-02-03T10:17:58;4.15;;;1.70;;
62880;SDS011;48969;49.934;8.596;2023-02-03T10:20:26;4.20;;;1.60;;
62880;SDS011;48969;49.934;8.596;2023-02-03T10:23:03;4.95;;;1.70;;
62880;SDS011;48969;49.934;8.596;2023-02-03T10:25:39;3.78;;;1.50;;
62880;SDS011;48969;49.934;8.596;2023-02-03T10:28:13;5.18;;;1.60;;
62880;SDS011;48969;49.934;8.596;2023-02-03T10:30:41;3.45;;;1.45;;
62880;SDS011;48969;49.934;8.596;2023-02-03T10:35:41;4.15;;;1.50;;
62880;SDS011;48969;49.934;8.596;2023-02-03T10:38:10;2.95;;;1.42;;
62880;SDS011;48969;49.934;8.596;2023-02-03T10:40:37;4.85;;;1.77;;
62880;SDS011;48969;49.934;8.596;2023-02-03T10:43:03;2.85;;;1.40;;
62880;SDS011;48969;49.934;8.596;2023-02-03T10:45:47;4.00;;;1.58;;
62880;SDS011;48969;49.934;8.596;2023-02-03T10:48:14;3.63;;;1.48;;
62880;SDS011;48969;49.934;8.596;2023-02-03T10:50:43;3.72;;;1.40;;
62880;SDS011;48969;49.934;8.596;2023-02-03T10:55:42;2.70;;;1.80;;
62880;SDS011;48969;49.934;8.596;2023-02-03T10:58:09;4.63;;;1.60;;
62880;SDS011;48969;49.934;8.596;2023-02-03T11:00:38;2.97;;;1.20;;
62880;SDS011;48969;49.934;8.596;2023-02-03T11:03:22;3.90;;;1.67;;
62880;SDS011;48969;49.934;8.596;2023-02-03T11:05:57;4.03;;;1.77;;
62880;SDS011;48969;49.934;8.596;2023-02-03T11:08:30;3.78;;;1.40;;
62880;SDS011;48969;49.934;8.596;2023-02-03T11:11:03;2.10;;;1.30;;
62880;SDS011;48969;49.934;8.596;2023-02-03T11:13:28;3.55;;;1.40;;
62880;SDS011;48969;49.934;8.596;2023-02-03T11:18:26;2.90;;;1.40;;
62880;SDS011;48969;49.934;8.596;2023-02-03T11:20:54;2.55;;;1.27;;
62880;SDS011;48969;49.934;8.596;2023-02-03T11:23:20;1.80;;;1.27;;
62880;SDS011;48969;49.934;8.596;2023-02-03T11:25:45;3.25;;;1.40;;
62880;SDS011;48969;49.934;8.596;2023-02-03T11:28:11;2.22;;;1.20;;
62880;SDS011;48969;49.934;8.596;2023-02-03T11:30:37;2.10;;;1.25;;
62880;SDS011;48969;49.934;8.596;2023-02-03T11:33:04;2.83;;;1.50;;
62880;SDS011;48969;49.934;8.596;2023-02-03T11:35:39;2.50;;;1.20;;
62880;SDS011;48969;49.934;8.596;2023-02-03T11:38:27;1.52;;;1.00;;
62880;SDS011;48969;49.934;8.596;2023-02-03T11:40:57;2.55;;;1.17;;
62880;SDS011;48969;49.934;8.596;2023-02-03T11:43:23;3.85;;;1.33;;
62880;SDS011;48969;49.934;8.596;2023-02-03T11:45:49;1.65;;;1.15;;
62880;SDS011;48969;49.934;8.596;2023-02-03T11:58:55;2.50;;;1.10;;
62880;SDS011;48969;49.934;8.596;2023-02-03T12:01:25;2.15;;;1.30;;
62880;SDS011;48969;49.934;8.596;2023-02-03T12:14:05;3.33;;;1.40;;
62880;SDS011;48969;49.934;8.596;2023-02-03T12:19:07;2.20;;;1.13;;
62880;SDS011;48969;49.934;8.596;2023-02-03T12:21:44;5.05;;;1.42;;
62880;SDS011;48969;49.934;8.596;2023-02-03T12:24:18;2.17;;;1.27;;
62880;SDS011;48969;49.934;8.596;2023-02-03T12:34:24;1.50;;;0.90;;
62880;SDS011;48969;49.934;8.596;2023-02-03T12:36:56;1.85;;;1.00;;
62880;SDS011;48969;49.934;8.596;2023-02-03T12:39:27;3.90;;;1.58;;
62880;SDS011;48969;49.934;8.596;2023-02-03T12:41:59;4.07;;;1.20;;
62880;SDS011;48969;49.934;8.596;2023-02-03T12:44:34;3.13;;;1.05;;
62880;SDS011;48969;49.934;8.596;2023-02-03T12:47:37;2.17;;;1.05;;
62880;SDS011;48969;49.934;8.596;2023-02-03T12:49:56;1.95;;;1.17;;
62880;SDS011;48969;49.934;8.596;2023-02-03T12:52:35;1.80;;;1.17;;
62880;SDS011;48969;49.934;8.596;2023-02-03T12:55:07;1.92;;;1.20;;
62880;SDS011;48969;49.934;8.596;2023-02-03T13:00:20;1.45;;;1.05;;
62880;SDS011;48969;49.934;8.596;2023-02-03T13:06:01;2.45;;;1.17;;
62880;SDS011;48969;49.934;8.596;2023-02-03T13:08:24;1.73;;;1.10;;
62880;SDS011;48969;49.934;8.596;2023-02-03T13:10:54;1.67;;;1.02;;
62880;SDS011;48969;49.934;8.596;2023-02-03T13:13:32;1.48;;;1.02;;
62880;SDS011;48969;49.934;8.596;2023-02-03T13:15:59;1.70;;;0.90;;
62880;SDS011;48969;49.934;8.596;2023-02-03T13:20:52;1.88;;;1.20;;
62880;SDS011;48969;49.934;8.596;2023-02-03T13:23:18;1.92;;;0.90;;
62880;SDS011;48969;49.934;8.596;2023-02-03T13:25:47;2.03;;;1.00;;
62880;SDS011;48969;49.934;8.596;2023-02-03T13:38:33;1.60;;;0.90;;
62880;SDS011;48969;49.934;8.596;2023-02-03T13:43:28;2.20;;;0.80;;
62880;SDS011;48969;49.934;8.596;2023-02-03T13:45:54;1.90;;;0.80;;
62880;SDS011;48969;49.934;8.596;2023-02-03T13:48:20;2.05;;;0.90;;
62880;SDS011;48969;49.934;8.596;2023-02-03T13:50:48;0.85;;;0.80;;
62880;SDS011;48969;49.934;8.596;2023-02-03T13:55:39;1.52;;;0.93;;
62880;SDS011;48969;49.934;8.596;2023-02-03T13:58:07;0.93;;;0.80;;
62880;SDS011;48969;49.934;8.596;2023-02-03T14:04:49;1.83;;;0.90;;
62880;SDS011;48969;49.934;8.596;2023-02-03T14:06:02;1.45;;;0.90;;
62880;SDS011;48969;49.934;8.596;2023-02-03T14:13:36;2.10;;;1.70;;
62880;SDS011;48969;49.934;8.596;2023-02-03T14:16:12;3.90;;;2.05;;
62880;SDS011;48969;49.934;8.596;2023-02-03T14:18:44;2.85;;;1.70;;
62880;SDS011;48969;49.934;8.596;2023-02-03T14:21:20;1.35;;;1.02;;
62880;SDS011;48969;49.934;8.596;2023-02-03T14:23:47;1.83;;;1.10;;
62880;SDS011;48969;49.934;8.596;2023-02-03T14:26:18;0.80;;;0.80;;
62880;SDS011;48969;49.934;8.596;2023-02-03T14:28:44;1.83;;;0.93;;
62880;SDS011;48969;49.934;8.596;2023-02-03T14:31:11;1.27;;;0.90;;
62880;SDS011;48969;49.934;8.596;2023-02-03T14:38:59;0.70;;;0.70;;
62880;SDS011;48969;49.934;8.596;2023-02-03T14:41:49;2.00;;;0.88;;
62880;SDS011;48969;49.934;8.596;2023-02-03T14:44:34;1.55;;;0.70;;
62880;SDS011;48969;49.934;8.596;2023-02-03T14:52:14;3.03;;;1.35;;
62880;SDS011;48969;49.934;8.596;2023-02-03T14:54:45;1.27;;;0.95;;
62880;SDS011;48969;49.934;8.596;2023-02-03T14:57:26;2.22;;;0.95;;
62880;SDS011;48969;49.934;8.596;2023-02-03T15:02:21;1.80;;;1.10;;
62880;SDS011;48969;49.934;8.596;2023-02-03T15:04:49;2.05;;;1.25;;
62880;SDS011;48969;49.934;8.596;2023-02-03T15:07:32;1.13;;;1.02;;
62880;SDS011;48969;49.934;8.596;2023-02-03T15:09:58;0.80;;;0.80;;
62880;SDS011;48969;49.934;8.596;2023-02-03T15:12:24;3.13;;;1.30;;
62880;SDS011;48969;49.934;8.596;2023-02-03T15:14:50;1.30;;;1.00;;
62880;SDS011;48969;49.934;8.596;2023-02-03T15:17:20;1.23;;;1.00;;
62880;SDS011;48969;49.934;8.596;2023-02-03T15:19:46;1.25;;;1.08;;
62880;SDS011;48969;49.934;8.596;2023-02-03T15:22:28;1.80;;;1.00;;
62880;SDS011;48969;49.934;8.596;2023-02-03T15:25:02;1.10;;;1.00;;
62880;SDS011;48969;49.934;8.596;2023-02-03T15:27:44;2.58;;;0.93;;
62880;SDS011;48969;49.934;8.596;2023-02-03T15:30:16;1.67;;;1.20;;
62880;SDS011;48969;49.934;8.596;2023-02-03T15:35:09;0.90;;;0.90;;
62880;SDS011;48969;49.934;8.596;2023-02-03T15:37:45;1.48;;;1.20;;
62880;SDS011;48969;49.934;8.596;2023-02-03T15:42:42;1.35;;;1.25;;
62880;SDS011;48969;49.934;8.596;2023-02-03T15:47:50;1.50;;;1.05;;
62880;SDS011;48969;49.934;8.596;2023-02-03T15:50:39;1.50;;;1.20;;
62880;SDS011;48969;49.934;8.596;2023-02-03T15:53:13;2.40;;;1.50;;
62880;SDS011;48969;49.934;8.596;2023-02-03T15:55:41;2.95;;;1.08;;
62880;SDS011;48969;49.934;8.596;2023-02-03T15:58:27;1.20;;;1.00;;
62880;SDS011;48969;49.934;8.596;2023-02-03T16:00:53;1.42;;;1.00;;
62880;SDS011;48969;49.934;8.596;2023-02-03T16:03:20;1.48;;;0.90;;
62880;SDS011;48969;49.934;8.596;2023-02-03T16:05:46;1.55;;;1.23;;
62880;SDS011;48969;49.934;8.596;2023-02-03T16:08:25;2.35;;;1.20;;
62880;SDS011;48969;49.934;8.596;2023-02-03T16:10:51;0.90;;;0.90;;
62880;SDS011;48969;49.934;8.596;2023-02-03T16:13:17;1.52;;;1.10;;
62880;SDS011;48969;49.934;8.596;2023-02-03T16:15:54;2.00;;;1.20;;
62880;SDS011;48969;49.934;8.596;2023-02-03T16:18:20;2.00;;;1.05;;
62880;SDS011;48969;49.934;8.596;2023-02-03T16:20:47;2.08;;;1.23;;
62880;SDS011;48969;49.934;8.596;2023-02-03T16:23:21;2.40;;;1.48;;
62880;SDS011;48969;49.934;8.596;2023-02-03T16:26:03;1.65;;;1.27;;
62880;SDS011;48969;49.934;8.596;2023-02-03T16:28:29;2.70;;;1.30;;
62880;SDS011;48969;49.934;8.596;2023-02-03T16:31:17;1.20;;;1.10;;
62880;SDS011;48969;49.934;8.596;2023-02-03T16:34:01;1.10;;;1.00;;
62880;SDS011;48969;49.934;8.596;2023-02-03T16:36:45;1.20;;;1.00;;
62880;SDS011;48969;49.934;8.596;2023-02-03T16:39:29;2.55;;;1.27;;
62880;SDS011;48969;49.934;8.596;2023-02-03T16:42:17;2.72;;;1.50;;
62880;SDS011;48969;49.934;8.596;2023-02-03T16:45:15;1.48;;;1.00;;
62880;SDS011;48969;49.934;8.596;2023-02-03T16:48:01;1.08;;;1.08;;
62880;SDS011;48969;49.934;8.596;2023-02-03T16:53:45;1.70;;;1.60;;
62880;SDS011;48969;49.934;8.596;2023-02-03T16:56:12;1.40;;;1.30;;
62880;SDS011;48969;49.934;8.596;2023-02-03T16:58:37;4.35;;;2.03;;
62880;SDS011;48969;49.934;8.596;2023-02-03T17:10:27;2.00;;;1.80;;
62880;SDS011;48969;49.934;8.596;2023-02-03T17:13:20;2.60;;;1.88;;
62880;SDS011;48969;49.934;8.596;2023-02-03T17:15:46;2.22;;;2.03;;
62880;SDS011;48969;49.934;8.596;2023-02-03T17:18:12;2.13;;;1.92;;
62880;SDS011;48969;49.934;8.596;2023-02-03T17:20:39;2.10;;;1.80;;
62880;SDS011;48969;49.934;8.596;2023-02-03T17:23:05;2.42;;;2.03;;
62880;SDS011;48969;49.934;8.596;2023-02-03T17:25:31;2.00;;;1.80;;